createdAt,value
2022-10-09T00:01:06.439Z,5.80
2022-10-09T00:03:34.538Z,5.47
2022-10-09T00:06:02.063Z,6.10
2022-10-09T00:08:29.316Z,5.57
2022-10-09T00:10:56.280Z,5.50
2022-10-09T00:13:23.600Z,5.03
2022-10-09T00:18:18.851Z,5.07
2022-10-09T00:20:47.059Z,5.60
2022-10-09T00:23:16.610Z,5.10
2022-10-09T00:25:55.435Z,4.90
2022-10-09T00:28:23.784Z,5.20
2022-10-09T00:30:51.104Z,5.37
2022-10-09T00:33:18.810Z,5.20
2022-10-09T00:35:46.601Z,5.20
2022-10-09T00:38:13.965Z,5.40
2022-10-09T00:40:41.244Z,5.03
2022-10-09T00:43:17.561Z,4.43
2022-10-09T00:45:50.511Z,5.63
2022-10-09T00:48:18.840Z,5.43
2022-10-09T00:50:55.217Z,5.57
2022-10-09T00:53:25.366Z,5.80
2022-10-09T00:55:52.586Z,5.43
2022-10-09T00:58:20.191Z,6.00
2022-10-09T01:00:47.534Z,5.93
2022-10-09T01:03:14.507Z,6.07
2022-10-09T01:06:00.755Z,6.80
2022-10-09T01:08:45.520Z,6.80
2022-10-09T01:11:34.149Z,7.63
2022-10-09T01:14:07.445Z,6.97
2022-10-09T01:16:43.688Z,6.30
2022-10-09T01:19:27.671Z,6.70
2022-10-09T01:22:36.190Z,6.97
2022-10-09T01:25:09.281Z,6.23
2022-10-09T01:27:37.853Z,6.33
2022-10-09T01:30:12.522Z,6.57
2022-10-09T01:32:43.974Z,6.13
2022-10-09T01:35:12.727Z,5.80
2022-10-09T01:37:42.932Z,7.63
2022-10-09T01:40:13.156Z,6.80
2022-10-09T01:42:40.959Z,6.97
2022-10-09T01:45:08.261Z,7.17
2022-10-09T01:47:35.264Z,6.93
2022-10-09T01:50:16.365Z,6.30
2022-10-09T01:52:43.218Z,6.67
2022-10-09T01:55:19.038Z,6.67
2022-10-09T01:57:49.394Z,6.47
2022-10-09T02:00:17.052Z,6.33
2022-10-09T02:02:45.734Z,6.20
2022-10-09T02:05:17.690Z,7.00
2022-10-09T02:07:45.117Z,6.43
2022-10-09T02:10:13.060Z,7.27
2022-10-09T02:12:49.563Z,7.20
2022-10-09T02:15:16.850Z,6.93
2022-10-09T02:17:47.748Z,6.90
2022-10-09T02:20:22.375Z,6.47
2022-10-09T02:22:49.572Z,7.20
2022-10-09T02:25:18.474Z,7.10
2022-10-09T02:27:46.598Z,7.40
2022-10-09T02:30:15.305Z,6.63
2022-10-09T02:32:42.244Z,7.07
2022-10-09T02:35:09.417Z,6.77
2022-10-09T02:37:36.417Z,5.63
2022-10-09T02:40:08.260Z,6.17
2022-10-09T02:42:38.002Z,5.87
2022-10-09T02:45:05.387Z,5.90
2022-10-09T02:47:32.411Z,6.33
2022-10-09T02:49:59.261Z,7.53
2022-10-09T02:52:26.106Z,7.40
2022-10-09T02:54:52.947Z,8.37
2022-10-09T02:57:19.805Z,8.63
2022-10-09T02:59:46.701Z,7.67
2022-10-09T03:02:13.817Z,7.10
2022-10-09T03:04:40.765Z,7.70
2022-10-09T03:07:07.627Z,8.10
2022-10-09T03:09:34.480Z,7.30
2022-10-09T03:12:01.302Z,6.70
2022-10-09T03:14:28.231Z,7.10
2022-10-09T03:16:55.102Z,6.73
2022-10-09T03:19:21.957Z,6.77
2022-10-09T03:21:48.787Z,6.93
2022-10-09T03:24:15.633Z,6.77
2022-10-09T03:26:42.476Z,6.67
2022-10-09T03:29:09.302Z,6.27
2022-10-09T03:31:53.065Z,5.80
2022-10-09T03:34:20.780Z,5.50
2022-10-09T03:36:47.658Z,5.70
2022-10-09T03:39:14.590Z,5.70
2022-10-09T03:41:41.580Z,6.20
2022-10-09T03:44:08.466Z,5.50
2022-10-09T03:46:35.382Z,6.10
2022-10-09T03:49:02.300Z,6.57
2022-10-09T03:51:29.239Z,6.37
2022-10-09T03:53:56.127Z,6.70
2022-10-09T03:56:22.967Z,6.93
2022-10-09T03:58:49.960Z,6.37
2022-10-09T04:01:16.896Z,6.07
2022-10-09T04:03:43.835Z,7.10
2022-10-09T04:06:11.051Z,7.70
2022-10-09T04:08:37.911Z,7.80
2022-10-09T04:11:07.353Z,8.10
2022-10-09T04:13:34.196Z,8.00
2022-10-09T04:16:01.086Z,7.50
2022-10-09T04:18:28.140Z,7.77
2022-10-09T04:20:56.798Z,7.23
2022-10-09T04:23:26.334Z,6.80
2022-10-09T04:25:54.956Z,5.97
2022-10-09T04:28:23.532Z,6.80
2022-10-09T04:30:52.416Z,6.13
2022-10-09T04:33:19.721Z,6.70
2022-10-09T04:35:50.799Z,5.63
2022-10-09T04:38:18.237Z,5.80
2022-10-09T04:40:46.061Z,5.67
2022-10-09T04:43:12.992Z,6.07
2022-10-09T04:45:40.706Z,5.03
2022-10-09T04:48:07.605Z,6.00
2022-10-09T04:50:34.539Z,5.83
2022-10-09T04:53:01.449Z,5.30
2022-10-09T04:55:28.340Z,5.47
2022-10-09T04:57:55.243Z,5.00
2022-10-09T05:00:22.409Z,5.00
2022-10-09T05:02:50.051Z,5.27
2022-10-09T05:05:17.215Z,5.57
2022-10-09T05:07:44.059Z,5.83
2022-10-09T05:10:10.968Z,6.00
2022-10-09T05:12:37.831Z,5.67
2022-10-09T05:15:05.232Z,5.47
2022-10-09T05:17:32.160Z,5.50
2022-10-09T05:19:59.072Z,5.33
2022-10-09T05:22:26.261Z,5.60
2022-10-09T05:24:53.132Z,5.30
2022-10-09T05:27:20.027Z,5.07
2022-10-09T05:29:46.884Z,5.43
2022-10-09T05:32:14.754Z,5.43
2022-10-09T05:34:41.673Z,5.10
2022-10-09T05:37:08.617Z,4.97
2022-10-09T05:39:39.413Z,5.00
2022-10-09T05:42:06.406Z,5.53
2022-10-09T05:44:33.499Z,5.90
2022-10-09T05:47:00.508Z,5.67
2022-10-09T05:49:27.561Z,6.37
2022-10-09T05:51:55.953Z,6.40
2022-10-09T05:54:22.836Z,6.60
2022-10-09T05:56:49.731Z,7.30
2022-10-09T06:02:04.166Z,7.50
2022-10-09T06:04:31.385Z,7.30
2022-10-09T06:06:59.036Z,7.33
2022-10-09T06:09:29.807Z,7.20
2022-10-09T06:11:56.970Z,7.00
2022-10-09T06:14:25.121Z,6.97
2022-10-09T06:16:55.655Z,7.27
2022-10-09T06:19:24.066Z,7.50
2022-10-09T06:21:51.890Z,6.30
2022-10-09T06:24:28.657Z,6.47
2022-10-09T06:26:56.822Z,6.30
2022-10-09T06:29:23.809Z,6.83
2022-10-09T06:31:50.672Z,6.83
2022-10-09T06:34:17.849Z,4.73
2022-10-09T06:36:45.175Z,5.23
2022-10-09T06:39:12.293Z,5.57
2022-10-09T06:41:39.993Z,5.47
2022-10-09T06:44:25.163Z,4.43
2022-10-09T06:46:52.396Z,4.40
2022-10-09T06:49:25.229Z,4.80
2022-10-09T06:51:52.468Z,5.70
2022-10-09T06:54:19.354Z,5.07
2022-10-09T06:56:47.338Z,4.90
2022-10-09T06:59:17.548Z,4.87
2022-10-09T07:01:44.587Z,4.53
2022-10-09T07:04:13.615Z,4.60
2022-10-09T07:06:46.764Z,5.23
2022-10-09T07:09:16.464Z,5.53
2022-10-09T07:11:46.717Z,5.30
2022-10-09T07:14:18.726Z,5.30
2022-10-09T07:16:48.429Z,5.00
2022-10-09T07:19:17.741Z,4.70
2022-10-09T07:21:47.113Z,5.67
2022-10-09T07:24:15.027Z,5.47
2022-10-09T07:26:44.994Z,5.70
2022-10-09T07:29:14.630Z,4.87
2022-10-09T07:31:41.645Z,5.63
2022-10-09T07:34:10.450Z,5.23
2022-10-09T07:36:38.021Z,6.63
2022-10-09T07:39:08.175Z,5.20
2022-10-09T07:41:35.633Z,5.60
2022-10-09T07:44:03.875Z,5.40
2022-10-09T07:46:33.945Z,5.10
2022-10-09T07:49:03.489Z,5.10
2022-10-09T07:51:31.246Z,5.70
2022-10-09T07:54:01.388Z,6.60
2022-10-09T07:56:31.360Z,7.63
2022-10-09T07:59:00.836Z,7.07
2022-10-09T08:01:31.780Z,6.97
2022-10-09T08:04:00.267Z,7.13
2022-10-09T08:06:29.473Z,7.03
2022-10-09T08:08:58.577Z,7.03
2022-10-09T08:11:26.801Z,7.07
2022-10-09T08:13:54.296Z,8.00
2022-10-09T08:16:24.337Z,8.07
2022-10-09T08:18:55.779Z,6.67
2022-10-09T08:21:22.891Z,5.73
2022-10-09T08:23:53.477Z,4.83
2022-10-09T08:26:21.904Z,5.47
2022-10-09T08:28:57.975Z,5.53
2022-10-09T08:31:25.702Z,5.17
2022-10-09T08:33:57.661Z,4.93
2022-10-09T08:36:25.638Z,4.80
2022-10-09T08:38:52.891Z,4.60
2022-10-09T08:41:26.698Z,4.83
2022-10-09T08:44:05.024Z,4.60
2022-10-09T08:46:53.594Z,4.37
2022-10-09T08:49:45.096Z,4.47
2022-10-09T08:52:29.976Z,5.00
2022-10-09T08:55:02.118Z,4.50
2022-10-09T08:57:34.404Z,5.30
2022-10-09T09:00:01.352Z,5.03
2022-10-09T09:02:37.944Z,5.73
2022-10-09T09:05:23.104Z,5.30
2022-10-09T09:07:52.802Z,8.70
2022-10-09T09:10:35.047Z,49.67
2022-10-09T09:13:09.883Z,39.63
2022-10-09T09:16:00.789Z,13.90
2022-10-09T09:18:49.609Z,832.00
2022-10-09T09:21:47.482Z,371.37
2022-10-09T09:24:19.025Z,796.70
2022-10-09T09:26:50.730Z,931.17
2022-10-09T09:29:23.270Z,638.10
2022-10-09T09:31:58.730Z,835.03
2022-10-09T09:34:37.763Z,392.63
2022-10-09T09:37:05.073Z,554.30
2022-10-09T09:40:30.970Z,93.03
2022-10-09T09:42:21.833Z,493.53
2022-10-09T09:45:13.759Z,786.07
2022-10-09T09:47:45.687Z,290.77
2022-10-09T09:50:34.915Z,344.37
2022-10-09T09:53:05.137Z,897.33
2022-10-09T09:55:33.881Z,883.67
2022-10-09T09:58:14.783Z,173.17
2022-10-09T10:00:41.726Z,360.00
2022-10-09T10:03:14.249Z,524.57
2022-10-09T10:05:43.271Z,623.43
2022-10-09T10:08:14.301Z,447.83
2022-10-09T10:10:46.407Z,20.60
2022-10-09T10:13:23.901Z,6.83
2022-10-09T10:15:54.778Z,6.80
2022-10-09T10:18:24.526Z,14.47
2022-10-09T10:20:57.037Z,7.67
2022-10-09T10:23:40.897Z,11.83
2022-10-09T10:26:41.919Z,10.00
2022-10-09T10:29:17.629Z,2.90
2022-10-09T10:32:17.459Z,3.67
2022-10-09T10:35:01.277Z,3.50
2022-10-09T10:37:45.764Z,3.27
2022-10-09T10:40:20.051Z,3.60
2022-10-09T10:42:59.431Z,3.20
2022-10-09T10:45:33.693Z,2.97
2022-10-09T10:48:05.800Z,3.03
2022-10-09T10:50:41.485Z,3.50
2022-10-09T10:53:11.548Z,3.13
2022-10-09T10:56:14.582Z,3.37
2022-10-09T10:58:59.264Z,3.10
2022-10-09T11:01:52.294Z,3.10
2022-10-09T11:04:29.364Z,2.67
2022-10-09T11:07:25.560Z,3.30
2022-10-09T11:09:58.675Z,3.10
2022-10-09T11:12:48.786Z,2.93
2022-10-09T11:15:31.541Z,3.03
2022-10-09T11:18:32.475Z,2.97
2022-10-09T11:21:10.031Z,3.23
2022-10-09T11:23:53.870Z,3.33
2022-10-09T11:26:31.494Z,3.03
2022-10-09T11:29:06.762Z,2.80
2022-10-09T11:31:49.149Z,3.07
2022-10-09T11:34:23.155Z,3.10
2022-10-09T11:36:50.039Z,2.80
2022-10-09T11:39:25.896Z,2.93
2022-10-09T11:41:54.890Z,2.50
2022-10-09T11:45:00.259Z,2.90
2022-10-09T11:47:27.790Z,2.80
2022-10-09T11:50:06.920Z,3.10
2022-10-09T11:53:11.978Z,2.83
2022-10-09T11:55:38.933Z,3.07
2022-10-09T11:58:23.646Z,2.57
2022-10-09T12:00:54.140Z,2.90
2022-10-09T12:03:33.334Z,3.10
2022-10-09T12:06:15.596Z,3.13
2022-10-09T12:08:55.463Z,2.90
2022-10-09T12:11:23.730Z,2.50
2022-10-09T12:14:23.897Z,2.80
2022-10-09T12:16:50.877Z,2.70
2022-10-09T12:19:31.339Z,2.70
2022-10-09T12:22:21.881Z,2.93
2022-10-09T12:24:51.476Z,2.50
2022-10-09T12:27:23.855Z,2.97
2022-10-09T12:29:55.347Z,2.50
2022-10-09T12:32:38.184Z,2.50
2022-10-09T12:35:20.388Z,2.37
2022-10-09T12:37:47.336Z,2.47
2022-10-09T12:40:22.930Z,2.50
2022-10-09T12:42:52.659Z,2.30
2022-10-09T12:45:24.449Z,2.53
2022-10-09T12:47:54.651Z,2.57
2022-10-09T12:50:26.499Z,2.30
2022-10-09T12:53:05.973Z,2.83
2022-10-09T12:55:42.498Z,2.60
2022-10-09T12:58:18.640Z,2.50
2022-10-09T13:00:54.938Z,2.63
2022-10-09T13:03:26.375Z,2.57
2022-10-09T13:05:53.546Z,2.50
2022-10-09T13:08:25.757Z,2.20
2022-10-09T13:10:54.006Z,2.43
2022-10-09T13:13:27.215Z,2.47
2022-10-09T13:16:11.883Z,2.70
2022-10-09T13:18:38.814Z,2.87
2022-10-09T13:21:29.036Z,2.60
2022-10-09T13:24:14.013Z,2.70
2022-10-09T13:26:43.407Z,2.40
2022-10-09T13:29:13.226Z,2.60
2022-10-09T13:31:43.196Z,3.40
2022-10-09T13:34:12.920Z,2.70
2022-10-09T13:36:40.475Z,2.47
2022-10-09T13:39:10.655Z,4.57
2022-10-09T13:41:37.548Z,3.80
2022-10-09T13:44:04.404Z,2.67
2022-10-09T13:46:31.309Z,2.90
2022-10-09T13:48:58.242Z,2.87
2022-10-09T13:51:25.247Z,2.90
2022-10-09T13:53:52.275Z,2.77
2022-10-09T13:56:19.742Z,2.80
2022-10-09T13:58:46.661Z,2.77
2022-10-09T14:01:13.829Z,3.03
2022-10-09T14:03:40.833Z,2.70
2022-10-09T14:06:07.828Z,2.97
2022-10-09T14:08:34.712Z,2.93
2022-10-09T14:11:01.931Z,3.00
2022-10-09T14:13:29.621Z,3.13
2022-10-09T14:15:56.715Z,3.00
2022-10-09T14:18:23.773Z,3.10
2022-10-09T14:20:50.900Z,3.00
2022-10-09T14:23:17.826Z,2.97
2022-10-09T14:25:44.773Z,2.87
2022-10-09T14:28:11.646Z,2.93
2022-10-09T14:30:45.122Z,3.13
2022-10-09T14:33:12.898Z,2.90
2022-10-09T14:35:39.840Z,2.53
2022-10-09T14:38:06.721Z,2.90
2022-10-09T14:40:33.709Z,2.80
2022-10-09T14:43:00.585Z,4.30
2022-10-09T14:45:29.272Z,3.87
2022-10-09T14:47:57.052Z,3.07
2022-10-09T14:50:24.379Z,2.90
2022-10-09T14:52:51.437Z,2.80
2022-10-09T14:55:18.626Z,3.07
2022-10-09T14:57:45.643Z,3.13
2022-10-09T15:00:13.414Z,2.93
2022-10-09T15:05:10.799Z,3.03
2022-10-09T15:07:38.028Z,3.20
2022-10-09T15:10:05.274Z,3.00
2022-10-09T15:12:32.123Z,3.30
2022-10-09T15:14:59.128Z,3.57
2022-10-09T15:17:25.980Z,3.23
2022-10-09T15:19:54.069Z,3.00
2022-10-09T15:22:20.956Z,3.70
2022-10-09T15:24:47.999Z,2.93
2022-10-09T15:27:14.928Z,3.23
2022-10-09T15:29:41.811Z,3.00
2022-10-09T15:32:09.953Z,3.00
2022-10-09T15:34:41.231Z,3.70
2022-10-09T15:37:08.386Z,3.63
2022-10-09T15:39:35.489Z,4.30
2022-10-09T15:42:04.611Z,4.40
2022-10-09T15:44:31.556Z,4.00
2022-10-09T15:46:58.488Z,4.33
2022-10-09T15:49:25.956Z,3.83
2022-10-09T15:51:52.887Z,3.73
2022-10-09T15:54:19.835Z,4.60
2022-10-09T15:56:46.897Z,3.90
2022-10-09T15:59:16.808Z,4.13
2022-10-09T16:01:43.967Z,3.83
2022-10-09T16:04:11.003Z,3.40
2022-10-09T16:06:38.066Z,4.90
2022-10-09T16:09:05.003Z,4.60
2022-10-09T16:11:32.100Z,7.77
2022-10-09T16:13:59.326Z,4.20
2022-10-09T16:16:27.750Z,5.93
2022-10-09T16:18:56.813Z,3.63
2022-10-09T16:21:26.672Z,3.90
2022-10-09T16:23:58.791Z,3.90
2022-10-09T16:26:29.594Z,3.27
2022-10-09T16:28:56.983Z,3.63
2022-10-09T16:31:27.117Z,3.77
2022-10-09T16:33:54.283Z,3.80
2022-10-09T16:36:23.790Z,3.30
2022-10-09T16:38:50.667Z,4.53
2022-10-09T16:41:20.106Z,4.40
2022-10-09T16:43:49.374Z,4.40
2022-10-09T16:46:32.157Z,3.67
2022-10-09T16:49:03.504Z,4.10
2022-10-09T16:51:34.521Z,4.00
2022-10-09T16:54:03.808Z,3.47
2022-10-09T16:56:36.520Z,3.93
2022-10-09T16:59:06.769Z,3.90
2022-10-09T17:01:37.740Z,3.50
2022-10-09T17:04:04.998Z,3.50
2022-10-09T17:06:32.100Z,4.00
2022-10-09T17:08:59.762Z,4.23
2022-10-09T17:11:29.665Z,3.97
2022-10-09T17:13:57.483Z,3.73
2022-10-09T17:16:31.522Z,4.07
2022-10-09T17:18:58.521Z,4.07
2022-10-09T17:21:29.332Z,4.20
2022-10-09T17:24:01.984Z,4.27
2022-10-09T17:26:29.550Z,4.37
2022-10-09T17:42:32.712Z,4.53
2022-10-09T17:45:00.791Z,4.60
2022-10-09T17:47:32.490Z,4.57
2022-10-09T17:50:00.371Z,4.57
2022-10-09T17:52:27.670Z,4.13
2022-10-09T17:54:54.638Z,4.23
2022-10-09T17:57:28.597Z,4.67
2022-10-09T17:59:56.666Z,5.90
2022-10-09T18:02:25.597Z,4.90
2022-10-09T18:04:58.000Z,5.37
2022-10-09T18:07:27.863Z,5.10
2022-10-09T18:09:56.659Z,5.50
2022-10-09T18:12:23.623Z,5.97
2022-10-09T18:14:51.067Z,5.73
2022-10-09T18:17:22.236Z,4.80
2022-10-09T18:19:49.640Z,5.50
2022-10-09T18:22:16.657Z,5.40
2022-10-09T18:24:43.594Z,5.57
2022-10-09T18:27:10.523Z,5.87
2022-10-09T18:29:40.120Z,5.67
2022-10-09T18:32:15.236Z,5.23
2022-10-09T18:34:46.252Z,6.90
2022-10-09T18:37:13.666Z,6.40
2022-10-09T18:39:41.066Z,7.53
2022-10-09T18:42:08.284Z,7.20
2022-10-09T18:44:40.395Z,7.00
2022-10-09T18:47:13.412Z,7.60
2022-10-09T18:49:45.288Z,6.13
2022-10-09T18:52:17.404Z,7.57
2022-10-09T18:54:50.639Z,6.57
2022-10-09T18:57:22.514Z,7.43
2022-10-09T18:59:51.797Z,7.30
2022-10-09T19:02:20.145Z,7.57
2022-10-09T19:04:48.096Z,8.00
2022-10-09T19:07:17.035Z,7.90
2022-10-09T19:09:44.087Z,9.40
2022-10-09T19:12:11.145Z,8.70
2022-10-09T19:14:40.545Z,9.60
2022-10-09T19:17:07.990Z,24.37
2022-10-09T19:19:35.364Z,13.17
2022-10-09T19:22:02.861Z,10.40
2022-10-09T19:24:34.100Z,10.63
2022-10-09T19:27:01.899Z,12.13
2022-10-09T19:29:37.140Z,11.00
2022-10-09T19:32:04.175Z,9.57
2022-10-09T19:34:32.552Z,9.70
2022-10-09T19:36:59.666Z,9.50
2022-10-09T19:39:26.629Z,9.40
2022-10-09T19:41:54.129Z,6.70
2022-10-09T19:44:24.709Z,5.83
2022-10-09T19:46:52.566Z,6.67
2022-10-09T19:49:19.957Z,5.57
2022-10-09T19:51:46.927Z,5.57
2022-10-09T19:54:14.017Z,5.73
2022-10-09T19:56:43.311Z,5.27
2022-10-09T19:59:11.047Z,4.53
2022-10-09T20:01:40.536Z,4.80
2022-10-09T20:04:13.450Z,4.23
2022-10-09T20:06:42.934Z,4.50
2022-10-09T20:09:14.528Z,4.23
2022-10-09T20:11:47.137Z,5.40
2022-10-09T20:14:16.446Z,4.70
2022-10-09T20:16:46.230Z,4.83
2022-10-09T20:19:13.828Z,4.93
2022-10-09T20:21:40.760Z,4.87
2022-10-09T20:24:08.407Z,4.83
2022-10-09T20:26:37.726Z,5.40
2022-10-09T20:29:08.022Z,4.83
2022-10-09T20:31:34.997Z,5.23
2022-10-09T20:34:01.941Z,5.67
2022-10-09T20:36:35.362Z,5.30
2022-10-09T20:39:05.888Z,4.60
2022-10-09T20:41:34.071Z,5.00
2022-10-09T20:44:03.210Z,5.07
2022-10-09T20:46:32.250Z,5.67
2022-10-09T20:48:59.483Z,5.03
2022-10-09T20:51:26.633Z,5.30
2022-10-09T20:53:56.107Z,5.20
2022-10-09T20:56:24.974Z,5.23
2022-10-09T20:58:53.859Z,5.30
2022-10-09T21:01:21.202Z,5.13
2022-10-09T21:03:48.285Z,5.00
2022-10-09T21:06:18.333Z,4.90
2022-10-09T21:08:45.531Z,4.60
2022-10-09T21:11:16.359Z,5.07
2022-10-09T21:13:44.106Z,4.60
2022-10-09T21:16:14.541Z,5.07
2022-10-09T21:18:41.710Z,4.90
2022-10-09T21:21:13.727Z,5.10
2022-10-09T21:23:41.958Z,4.87
2022-10-09T21:26:17.168Z,5.30
2022-10-09T21:28:46.836Z,5.00
2022-10-09T21:31:18.208Z,5.30
2022-10-09T21:33:45.930Z,5.40
2022-10-09T21:36:56.159Z,5.00
2022-10-09T21:39:30.330Z,5.47
2022-10-09T21:41:57.214Z,5.50
2022-10-09T21:44:24.144Z,5.97
2022-10-09T21:46:51.055Z,6.17
2022-10-09T21:49:25.979Z,6.60
2022-10-09T21:51:53.737Z,6.40
2022-10-09T21:54:21.381Z,6.87
2022-10-09T21:56:48.682Z,6.93
2022-10-09T21:59:15.604Z,6.40
2022-10-09T22:01:42.479Z,6.47
2022-10-09T22:04:09.488Z,6.37
2022-10-09T22:06:36.365Z,6.43
2022-10-09T22:09:03.783Z,6.37
2022-10-09T22:11:30.759Z,6.40
2022-10-09T22:13:57.805Z,6.53
2022-10-09T22:16:24.648Z,6.67
2022-10-09T22:18:51.493Z,6.17
2022-10-09T22:21:19.041Z,6.60
2022-10-09T22:23:46.035Z,6.30
2022-10-09T22:26:17.049Z,6.57
2022-10-09T22:28:45.164Z,6.93
2022-10-09T22:31:21.052Z,6.93
2022-10-09T22:34:00.403Z,6.60
2022-10-09T22:36:30.596Z,7.00
2022-10-09T22:38:59.664Z,6.67
2022-10-09T22:41:28.779Z,7.47
2022-10-09T22:43:57.475Z,7.10
2022-10-09T22:46:29.592Z,7.13
2022-10-09T22:48:56.520Z,7.63
2022-10-09T22:51:25.138Z,7.43
2022-10-09T22:53:52.134Z,7.27
2022-10-09T22:56:22.511Z,7.00
2022-10-09T22:58:50.408Z,7.27
2022-10-09T23:01:20.843Z,6.97
2022-10-09T23:03:47.714Z,6.77
2022-10-09T23:06:17.098Z,7.13
2022-10-09T23:08:46.053Z,6.43
2022-10-09T23:11:14.117Z,7.37
2022-10-09T23:13:41.166Z,6.80
2022-10-09T23:16:10.519Z,7.40
2022-10-09T23:18:37.928Z,7.63
2022-10-09T23:21:06.881Z,7.60
2022-10-09T23:23:34.231Z,7.87
2022-10-09T23:26:09.385Z,8.63
2022-10-09T23:28:36.431Z,8.30
2022-10-09T23:31:08.575Z,7.73
2022-10-09T23:33:36.100Z,7.20
2022-10-09T23:36:03.989Z,7.93
2022-10-09T23:38:30.983Z,7.37
2022-10-09T23:41:06.355Z,7.90
2022-10-09T23:43:35.268Z,6.70
2022-10-09T23:46:04.628Z,7.33
2022-10-09T23:48:32.136Z,6.90
2022-10-09T23:50:59.457Z,7.20
2022-10-09T23:53:27.219Z,6.80
2022-10-09T23:55:54.803Z,7.43
2022-10-09T23:58:22.809Z,6.93
